Sanpo Maru No.5 — JL6343 — position and weather

sailwx.info

Track history (hours):
 
Tides and Currents Weather Stations Pressure Air Temp Water Temp Dewpoint Dewpoint Depression Visibility Wind Speed Wind Dir Waves Ship Positions

Sanpo Maru No.5

Last reported at 2016-Sep-24 16:29 UTC. Time now 2016-Sep-25 22:33 UTC.
Position N 35°51' E 140°55'.

Length 71 m; draft 4.5 m.

Type: Ship. MMSI: 431500283.

Date/timePositionNaut miles runAvg speedWind from/ knotsBaromVisibWave heightAir tempDewpointWater temp
2016-Sep-24 16:29N 35°51' E 140°55'38 9.6
2016-Sep-24 12:33N 35°18' E 140°33'20 9.9
2016-Sep-24 10:32N 35°03' E 140°17'1111.0
2016-Sep-24 09:33N 34°58' E 140°05'33 5.5
2016-Sep-24 03:33N 35°30' E 139°60'2 1.6
2016-Sep-24 02:30N 35°30' E 140°02'0 0.0
2016-Sep-24 01:30N 35°30' E 140°02'0 0.0
2016-Sep-24 00:33N 35°30' E 140°02'1 0.2
2016-Sep-23 19:26N 35°31' E 140°01'0 0.0
2016-Sep-23 17:20N 35°31' E 140°01'0 0.0
2016-Sep-23 16:32N 35°31' E 140°01'0 0.0
2016-Sep-23 15:26N 35°31' E 140°01'0 0.0
2016-Sep-23 13:26N 35°31' E 140°01'0 0.0
2016-Sep-23 09:32N 35°31' E 140°01'6 2.0
2016-Sep-23 06:26N 35°36' E 140°05'9 4.9
2016-Sep-23 04:33N 35°32' E 139°55'8 6.0
2016-Sep-23 03:16N 35°32' E 139°46'0 0.0
2016-Sep-23 02:25N 35°32' E 139°46'0 0.0
2016-Sep-23 01:31N 35°32' E 139°46'0 0.0
2016-Sep-23 00:31N 35°32' E 139°46'0 0.4
2016-Sep-22 23:33N 35°31' E 139°46'23 7.8
2016-Sep-22 20:33N 35°08' E 139°46'5 0.2
2016-Sep-21 09:33N 35°13' E 139°46'1010.4
2016-Sep-21 08:33N 35°23' E 139°42'15 2.9
2016-Sep-21 03:30N 35°35' E 139°53'0 0.0
2016-Sep-21 02:33N 35°35' E 139°53'0 0.0
2016-Sep-20 17:31N 35°35' E 139°53'0 0.0
2016-Sep-20 14:28N 35°35' E 139°53'0 0.0
2016-Sep-20 13:32N 35°35' E 139°53'0 0.0
2016-Sep-20 10:29N 35°35' E 139°53'0 0.0
2016-Sep-20 08:32N 35°35' E 139°53'0 0.0
2016-Sep-20 07:32N 35°35' E 139°53'0 0.0
2016-Sep-20 06:26N 35°35' E 139°53'0 0.0
2016-Sep-20 02:32N 35°35' E 139°53'0 0.0
2016-Sep-19 23:29N 35°35' E 139°53'0 0.0
2016-Sep-19 19:29N 35°35' E 139°53'0 0.0
2016-Sep-19 18:05N 35°35' E 139°53'0 0.0
2016-Sep-19 16:29N 35°35' E 139°53'0 0.0
2016-Sep-19 14:17N 35°35' E 139°53'0 0.0
2016-Sep-19 12:23N 35°35' E 139°53'0 0.0
2016-Sep-19 11:32N 35°35' E 139°53'0 0.0
2016-Sep-19 09:32N 35°35' E 139°53'0 0.0
2016-Sep-19 07:29N 35°35' E 139°53'0 0.0
2016-Sep-19 06:29N 35°35' E 139°53'7 2.2
2016-Sep-19 03:15N 35°29' E 139°56'4 6.0
2016-Sep-19 02:33N 35°30' E 140°00'1 0.6
2016-Sep-19 00:30N 35°30' E 140°02'1 0.3
2016-Sep-18 19:33N 35°30' E 140°00'0 0.0
2016-Sep-18 15:33N 35°30' E 140°00'0 0.1
2016-Sep-18 14:33N 35°30' E 140°00'0 0.0
2016-Sep-18 10:33N 35°30' E 140°00'0 0.0
2016-Sep-18 09:31N 35°30' E 140°00'31 4.5
2016-Sep-18 02:33N 35°01' E 140°12'18 9.0
2016-Sep-18 00:33N 35°13' E 140°29'2210.8
2016-Sep-17 22:33N 35°30' E 140°45'1111.1
2016-Sep-17 21:33N 35°39' E 140°53'19 0.6
2016-Sep-16 12:05N 35°56' E 140°42'1 0.3
2016-Sep-16 07:33N 35°57' E 140°42'1 0.1
2016-Sep-15 11:20N 35°56' E 140°42'  
Track history (hours):
 
Tides and Currents Weather Stations Pressure Air Temp Water Temp Dewpoint Dewpoint Depression Visibility Wind Speed Wind Dir Waves Ship Positions

Sanpo Maru No.5

Last reported at 2016-Sep-24 16:29 UTC. Time now 2016-Sep-25 22:33 UTC.
Position N 35°51' E 140°55'.

Length 71 m; draft 4.5 m.

Type: Ship. MMSI: 431500283.

Date/timePositionNaut miles runAvg speedWind from/ knotsBaromVisibWave heightAir tempDewpointWater temp
2016-Sep-24 16:29N 35°51' E 140°55'38 9.6
2016-Sep-24 12:33N 35°18' E 140°33'20 9.9
2016-Sep-24 10:32N 35°03' E 140°17'1111.0
2016-Sep-24 09:33N 34°58' E 140°05'33 5.5
2016-Sep-24 03:33N 35°30' E 139°60'2 1.6
2016-Sep-24 02:30N 35°30' E 140°02'0 0.0
2016-Sep-24 01:30N 35°30' E 140°02'0 0.0
2016-Sep-24 00:33N 35°30' E 140°02'1 0.2
2016-Sep-23 19:26N 35°31' E 140°01'0 0.0
2016-Sep-23 17:20N 35°31' E 140°01'0 0.0
2016-Sep-23 16:32N 35°31' E 140°01'0 0.0
2016-Sep-23 15:26N 35°31' E 140°01'0 0.0
2016-Sep-23 13:26N 35°31' E 140°01'0 0.0
2016-Sep-23 09:32N 35°31' E 140°01'6 2.0
2016-Sep-23 06:26N 35°36' E 140°05'9 4.9
2016-Sep-23 04:33N 35°32' E 139°55'8 6.0
2016-Sep-23 03:16N 35°32' E 139°46'0 0.0
2016-Sep-23 02:25N 35°32' E 139°46'0 0.0
2016-Sep-23 01:31N 35°32' E 139°46'0 0.0
2016-Sep-23 00:31N 35°32' E 139°46'0 0.4
2016-Sep-22 23:33N 35°31' E 139°46'23 7.8
2016-Sep-22 20:33N 35°08' E 139°46'5 0.2
2016-Sep-21 09:33N 35°13' E 139°46'1010.4
2016-Sep-21 08:33N 35°23' E 139°42'15 2.9
2016-Sep-21 03:30N 35°35' E 139°53'0 0.0
2016-Sep-21 02:33N 35°35' E 139°53'0 0.0
2016-Sep-20 17:31N 35°35' E 139°53'0 0.0
2016-Sep-20 14:28N 35°35' E 139°53'0 0.0
2016-Sep-20 13:32N 35°35' E 139°53'0 0.0
2016-Sep-20 10:29N 35°35' E 139°53'0 0.0
2016-Sep-20 08:32N 35°35' E 139°53'0 0.0
2016-Sep-20 07:32N 35°35' E 139°53'0 0.0
2016-Sep-20 06:26N 35°35' E 139°53'0 0.0
2016-Sep-20 02:32N 35°35' E 139°53'0 0.0
2016-Sep-19 23:29N 35°35' E 139°53'0 0.0
2016-Sep-19 19:29N 35°35' E 139°53'0 0.0
2016-Sep-19 18:05N 35°35' E 139°53'0 0.0
2016-Sep-19 16:29N 35°35' E 139°53'0 0.0
2016-Sep-19 14:17N 35°35' E 139°53'0 0.0
2016-Sep-19 12:23N 35°35' E 139°53'0 0.0
2016-Sep-19 11:32N 35°35' E 139°53'0 0.0
2016-Sep-19 09:32N 35°35' E 139°53'0 0.0
2016-Sep-19 07:29N 35°35' E 139°53'0 0.0
2016-Sep-19 06:29N 35°35' E 139°53'7 2.2
2016-Sep-19 03:15N 35°29' E 139°56'4 6.0
2016-Sep-19 02:33N 35°30' E 140°00'1 0.6
2016-Sep-19 00:30N 35°30' E 140°02'1 0.3
2016-Sep-18 19:33N 35°30' E 140°00'0 0.0
2016-Sep-18 15:33N 35°30' E 140°00'0 0.1
2016-Sep-18 14:33N 35°30' E 140°00'0 0.0
2016-Sep-18 10:33N 35°30' E 140°00'0 0.0
2016-Sep-18 09:31N 35°30' E 140°00'31 4.5
2016-Sep-18 02:33N 35°01' E 140°12'18 9.0
2016-Sep-18 00:33N 35°13' E 140°29'2210.8
2016-Sep-17 22:33N 35°30' E 140°45'1111.1
2016-Sep-17 21:33N 35°39' E 140°53'19 0.6
2016-Sep-16 12:05N 35°56' E 140°42'1 0.3
2016-Sep-16 07:33N 35°57' E 140°42'1 0.1
2016-Sep-15 11:20N 35°56' E 140°42'  

Dump ship's entire track history